Bookmark and Share
Track history (hours):
 

Planet Ace

Last reported at 2014-Apr-20 19:16 UTC. Time now 2014-Apr-21 12:22 UTC.
Position N 50°10' W 001°59'.

Length 188 m; beam 28.2 m.

Type: Cargo ship. MMSI: 352168000.

NotesDate/timePositionNaut miles runAvg speedWind from/ knotsBaromVisibWave heightAir tempDewpointWater temp
2014-Apr-20 19:16N 50°10' W 001°59'1217.1
2014-Apr-20 18:33N 50°13' W 001°41'1817.7
2014-Apr-20 17:33N 50°18' W 001°14'1818.2
2014-Apr-20 16:33N 50°24' W 000°47'1716.5
2014-Apr-20 15:33N 50°28' W 000°22'1515.4
2014-Apr-20 14:33N 50°33' E 000°01'1414.2
2014-Apr-20 13:34N 50°36' E 000°23'1413.5
2014-Apr-20 12:33N 50°43' E 000°41'1514.6
2014-Apr-20 11:33N 50°51' E 001°01'1716.6
2014-Apr-20 10:33N 51°01' E 001°21'1817.5
2014-Apr-20 09:33N 51°15' E 001°38'1615.8
2014-Apr-20 08:33N 51°30' E 001°45'1414.3
2014-Apr-20 07:33N 51°45' E 001°45'1514.6
2014-Apr-20 06:34N 51°59' E 001°46'1312.7
2014-Apr-20 05:34N 52°11' E 001°52'1312.7
2014-Apr-20 04:34N 52°23' E 001°58'1312.8
2014-Apr-20 03:33N 52°36' E 002°03'1312.9
2014-Apr-20 02:34N 52°48' E 001°55'1413.7
2014-Apr-20 01:33N 52°56' E 001°37'1514.7
2014-Apr-20 00:33N 53°08' E 001°22'3015.2
2014-Apr-19 22:33N 53°34' E 000°56'1615.0
2014-Apr-19 21:29N 53°46' E 000°39'1415.5
2014-Apr-19 20:33N 53°58' E 000°24'1615.9
2014-Apr-19 19:33N 54°09' E 000°05'1616.0
2014-Apr-19 18:33N 54°21' W 000°12'1616.1
2014-Apr-19 17:33N 54°34' W 000°30'1615.4
2014-Apr-19 16:33N 54°45' W 000°49'1515.2
2014-Apr-19 15:33N 54°55' W 001°09'12 1.5
2014-Apr-19 07:32N 54°59' W 001°28'0 0.0
2014-Apr-18 19:08N 54°59' W 001°28'0 0.0
2014-Apr-18 17:26N 54°59' W 001°28'5 0.2
2014-Apr-17 20:32N 55°02' W 001°21'1 1.3
2014-Apr-17 19:32N 55°02' W 001°19'1313.5
2014-Apr-17 18:33N 55°01' W 000°56'5 4.4
2014-Apr-17 17:28N 55°02' W 000°48'2 2.3
2014-Apr-17 16:29N 55°04' W 000°50'3 2.3
2014-Apr-17 15:20N 55°07' W 000°52'2 2.5
2014-Apr-17 14:33N 55°08' W 000°55'2 1.9
2014-Apr-17 13:26N 55°09' W 000°58'1 1.6
2014-Apr-17 12:30N 55°08' W 001°00'2 1.6
2014-Apr-17 11:33N 55°07' W 001°02'2 2.1
2014-Apr-17 10:28N 55°05' W 001°04'2 2.0
2014-Apr-17 09:32N 55°03' W 001°07'4 2.0
2014-Apr-17 07:30N 55°01' W 001°11'1 1.5
2014-Apr-17 06:33N 55°01' W 001°14'1312.6
2014-Apr-17 05:32N 54°53' W 000°56'1313.2
2014-Apr-17 04:33N 54°46' W 000°37'1313.2
2014-Apr-17 03:33N 54°39' W 000°18'1414.1
2014-Apr-17 02:34N 54°31' E 000°02'1514.8
2014-Apr-17 01:34N 54°23' E 000°23'1615.6
2014-Apr-17 00:34N 54°15' E 000°46'3215.9
2014-Apr-16 22:33N 53°58' E 001°32'1514.9
2014-Apr-16 21:33N 53°50' E 001°53'1414.2
2014-Apr-16 20:33N 53°41' E 002°13'1513.9
2014-Apr-16 19:28N 53°33' E 002°33'1314.1
2014-Apr-16 18:33N 53°24' E 002°50'1514.4
2014-Apr-16 17:30N 53°14' E 003°08'1515.5
2014-Apr-16 16:32N 53°03' E 003°26'1515.8
2014-Apr-16 15:33N 52°52' E 003°43'1615.6
2014-Apr-16 14:33N 52°40' E 004°01'1515.0
2014-Apr-16 13:33N 52°30' E 004°19'1110.7
2014-Apr-16 12:33N 52°28' E 004°36'1 1.3
2014-Apr-16 11:34N 52°28' E 004°38'7 6.9
2014-Apr-16 10:33N 52°25' E 004°49'1 1.0
2014-Apr-16 09:32N 52°24' E 004°49'0 0.0
2014-Apr-16 08:32N 52°24' E 004°49'0 0.0
2014-Apr-16 07:32N 52°24' E 004°49'0 0.0
2014-Apr-16 06:32N 52°24' E 004°49'0 0.0
2014-Apr-16 05:32N 52°24' E 004°49'0 0.0
2014-Apr-16 04:32N 52°24' E 004°49'0 0.0
2014-Apr-16 03:32N 52°24' E 004°49'0 0.0
2014-Apr-16 02:32N 52°24' E 004°49'0 0.0
2014-Apr-16 01:32N 52°24' E 004°49'0 0.0
2014-Apr-16 00:32N 52°24' E 004°49'0 0.0
2014-Apr-15 23:32N 52°24' E 004°49'0 0.0
2014-Apr-15 22:32N 52°24' E 004°49'0 0.0
2014-Apr-15 21:32N 52°24' E 004°49'0 0.0
2014-Apr-15 20:32N 52°24' E 004°49'0 0.0
2014-Apr-15 19:32N 52°24' E 004°49'0 0.0
2014-Apr-15 18:32N 52°24' E 004°49'0 0.0
2014-Apr-15 17:32N 52°24' E 004°49'0 0.0
2014-Apr-15 16:32N 52°24' E 004°49'0 0.0
2014-Apr-15 15:32N 52°24' E 004°49'0 0.0
2014-Apr-15 14:31N 52°24' E 004°49'0 0.0
2014-Apr-15 12:32N 52°24' E 004°49'0 0.0
2014-Apr-15 11:32N 52°24' E 004°49'0 0.0
2014-Apr-15 10:32N 52°24' E 004°49'0 0.0
2014-Apr-15 09:32N 52°24' E 004°49'0 0.0
2014-Apr-15 08:32N 52°24' E 004°49'0 0.0
2014-Apr-15 07:32N 52°24' E 004°49'0 0.0
2014-Apr-15 06:32N 52°24' E 004°49'0 0.0
2014-Apr-15 05:32N 52°24' E 004°49'0 0.0
2014-Apr-15 03:32N 52°24' E 004°49'0 0.0
2014-Apr-15 02:31N 52°24' E 004°49'0 0.0
2014-Apr-15 01:31N 52°24' E 004°49'0 0.0
2014-Apr-15 00:31N 52°24' E 004°49'0 0.0
2014-Apr-14 23:31N 52°24' E 004°49'0 0.0
2014-Apr-14 22:31N 52°24' E 004°49'0 0.0
2014-Apr-14 21:31N 52°24' E 004°49'0 0.0
2014-Apr-14 20:31N 52°24' E 004°49'0 0.0
2014-Apr-14 19:31N 52°24' E 004°49'0 0.0
2014-Apr-14 18:31N 52°24' E 004°49'0 0.0
2014-Apr-14 17:31N 52°24' E 004°49'0 0.0
2014-Apr-14 16:31N 52°24' E 004°49'0 0.0
2014-Apr-14 15:31N 52°24' E 004°49'0 0.0
2014-Apr-14 14:31N 52°24' E 004°49'0 0.0
2014-Apr-14 13:31N 52°24' E 004°49'0 0.0
2014-Apr-14 11:31N 52°24' E 004°49'0 0.0
2014-Apr-14 10:31N 52°24' E 004°49'0 0.0
2014-Apr-14 09:31N 52°24' E 004°49'0 0.0
2014-Apr-14 08:31N 52°24' E 004°49'0 0.0
2014-Apr-14 07:31N 52°24' E 004°49'0 0.0
2014-Apr-14 06:31N 52°24' E 004°49'0 0.0
2014-Apr-14 05:34N 52°24' E 004°49'0 0.0
2014-Apr-13 22:33N 52°24' E 004°49'0 0.0
2014-Apr-13 21:33N 52°24' E 004°49'0 0.0
2014-Apr-13 20:33N 52°24' E 004°49'0 0.0
2014-Apr-13 19:33N 52°24' E 004°49'0 0.0
2014-Apr-13 18:33N 52°24' E 004°49'0 0.0
2014-Apr-13 17:33N 52°24' E 004°49'0 0.0
2014-Apr-13 16:33N 52°24' E 004°49'0 0.0
2014-Apr-13 15:33N 52°24' E 004°49'0 0.0
2014-Apr-13 14:33N 52°24' E 004°49'0 0.0
2014-Apr-13 13:33N 52°24' E 004°49'0 0.0
2014-Apr-13 12:33N 52°24' E 004°49'0 0.0
2014-Apr-13 11:33N 52°24' E 004°49'0 0.0
2014-Apr-13 10:33N 52°24' E 004°49'0 0.0
2014-Apr-13 09:33N 52°24' E 004°49'0 0.0
2014-Apr-13 08:33N 52°24' E 004°49'0 0.0
2014-Apr-13 07:33N 52°24' E 004°49'0 0.0
2014-Apr-13 06:33N 52°24' E 004°49'0 0.0
2014-Apr-13 05:33N 52°24' E 004°49'0 0.0
2014-Apr-13 04:33N 52°24' E 004°49'0 0.0
2014-Apr-13 03:33N 52°24' E 004°49'0 0.0
2014-Apr-13 02:33N 52°24' E 004°49'0 0.0
2014-Apr-13 01:33N 52°24' E 004°49'0 0.0
2014-Apr-13 00:30N 52°24' E 004°49'0 0.0
2014-Apr-12 23:33N 52°24' E 004°49'0 0.0
2014-Apr-12 22:33N 52°24' E 004°49'0 0.0
2014-Apr-12 21:33N 52°24' E 004°49'0 0.0
2014-Apr-12 20:32N 52°24' E 004°49'0 0.0
2014-Apr-12 19:32N 52°24' E 004°49'0 0.0
2014-Apr-12 18:32N 52°24' E 004°49'0 0.0
2014-Apr-12 17:29N 52°24' E 004°49'0 0.0
2014-Apr-12 16:32N 52°24' E 004°49'0 0.0
2014-Apr-12 15:32N 52°24' E 004°49'0 0.0
2014-Apr-12 14:32N 52°24' E 004°49'0 0.0
2014-Apr-12 13:32N 52°24' E 004°49'0 0.0
2014-Apr-12 12:32N 52°24' E 004°49'0 0.0
2014-Apr-12 11:32N 52°24' E 004°49'0 0.0
2014-Apr-12 10:32N 52°24' E 004°49'0 0.0
2014-Apr-12 09:32N 52°24' E 004°49'0 0.0
2014-Apr-12 08:32N 52°24' E 004°49'0 0.0
2014-Apr-12 07:32N 52°24' E 004°49'0 0.0
2014-Apr-12 06:32N 52°24' E 004°49'0 0.0
2014-Apr-12 05:32N 52°24' E 004°49'0 0.0
2014-Apr-12 04:32N 52°24' E 004°49'0 0.0
2014-Apr-12 03:32N 52°24' E 004°49'0 0.0
2014-Apr-12 02:32N 52°24' E 004°49'0 0.0
2014-Apr-12 01:32N 52°24' E 004°49'0 0.0
2014-Apr-12 00:32N 52°24' E 004°49'0 0.0
2014-Apr-11 23:32N 52°24' E 004°49'0 0.0
2014-Apr-11 22:32N 52°24' E 004°49'0 0.0
2014-Apr-11 21:32N 52°24' E 004°49'0 0.0
2014-Apr-11 20:32N 52°24' E 004°49'0 0.0
2014-Apr-11 19:32N 52°24' E 004°49'0 0.0
2014-Apr-11 18:32N 52°24' E 004°49'0 0.0
2014-Apr-11 17:32N 52°24' E 004°49'0 0.0
2014-Apr-11 16:32N 52°24' E 004°49'0 0.0
2014-Apr-11 15:32N 52°24' E 004°49'0 0.0
2014-Apr-11 14:32N 52°24' E 004°49'0 0.0
2014-Apr-11 13:32N 52°24' E 004°49'0 0.0
2014-Apr-11 12:32N 52°24' E 004°49'0 0.0
2014-Apr-11 11:32N 52°24' E 004°49'0 0.0
2014-Apr-11 10:31N 52°24' E 004°49'0 0.0
2014-Apr-11 09:31N 52°24' E 004°49'0 0.0
2014-Apr-11 08:31N 52°24' E 004°49'0 0.0
2014-Apr-11 07:31N 52°24' E 004°49'0 0.0
2014-Apr-11 06:31N 52°24' E 004°49'0 0.0
2014-Apr-11 05:31N 52°24' E 004°49'0 0.0
2014-Apr-11 04:31N 52°24' E 004°49'0 0.0
2014-Apr-11 03:31N 52°24' E 004°49'0 0.0
2014-Apr-11 02:31N 52°24' E 004°49'0 0.0
2014-Apr-11 01:31N 52°24' E 004°49'0 0.0
2014-Apr-11 00:31N 52°24' E 004°49'0 0.0
2014-Apr-10 23:31N 52°24' E 004°49'0 0.0
2014-Apr-10 22:31N 52°24' E 004°49'0 0.0
2014-Apr-10 21:31N 52°24' E 004°49'0 0.0
2014-Apr-10 20:31N 52°24' E 004°49'0 0.0
2014-Apr-10 19:31N 52°24' E 004°49'  

Dump ship's entire track history

sailing weather and tide predictions

Planet Ace — 3EYF9 — position and weather